Time;durP1;ratioP1;P1;durP2;ratioP2;P2;SDS_P1;SDS_P2;PMS_P1;PMS_P2;Temp;Humidity;BMP_temperature;BMP_pressure;BME280_temperature;BME280_humidity;BME280_pressure;Samples;Min_cycle;Max_cycle;Signal;HPM_P1;HPM_P2
2021/11/05 00:00:47;;;;;;;4.18;2.35;;;6.30;99.90;;;;;;5093004;28;20028;-74
2021/11/05 00:03:12;;;;;;;2.97;2.65;;;6.30;99.90;;;;;;5093062;28;20024;-74
2021/11/05 00:05:38;;;;;;;2.60;2.40;;;6.30;99.90;;;;;;5092915;28;20059;-74
2021/11/05 00:08:08;;;;;;;3.25;2.20;;;6.30;99.90;;;;;;5092949;28;20541;-74
2021/11/05 00:10:42;;;;;;;2.58;2.28;;;6.30;99.90;;;;;;5092041;28;20045;-74
2021/11/05 00:13:10;;;;;;;4.13;2.72;;;6.30;99.90;;;;;;5093072;28;20186;-74
2021/11/05 00:15:35;;;;;;;3.25;2.50;;;6.20;99.90;;;;;;5072977;28;20032;-74
2021/11/05 00:18:01;;;;;;;4.30;2.70;;;6.20;99.90;;;;;;5071426;28;20032;-74
2021/11/05 00:20:27;;;;;;;3.20;2.40;;;6.10;99.90;;;;;;5072558;28;20021;-74
2021/11/05 00:22:54;;;;;;;2.95;2.65;;;6.10;99.90;;;;;;5071390;28;20024;-74
2021/11/05 00:25:21;;;;;;;3.55;2.50;;;6.10;99.90;;;;;;5072594;28;20043;-74
2021/11/05 00:27:46;;;;;;;5.53;2.50;;;6.10;99.90;;;;;;5072617;28;20020;-74
2021/11/05 00:30:13;;;;;;;2.70;2.47;;;6.10;99.90;;;;;;5071239;28;20028;-74
2021/11/05 00:32:39;;;;;;;3.20;2.88;;;6.10;99.90;;;;;;5074002;28;20112;-74
2021/11/05 00:35:05;;;;;;;3.60;3.05;;;6.00;99.90;;;;;;5075144;28;20048;-74
2021/11/05 00:37:31;;;;;;;3.53;2.90;;;6.00;99.90;;;;;;5076371;28;20020;-74
2021/11/05 00:39:57;;;;;;;3.65;2.80;;;6.00;99.90;;;;;;5075074;28;20024;-74
2021/11/05 00:42:23;;;;;;;5.45;2.58;;;6.00;99.90;;;;;;5076269;28;20016;-74
2021/11/05 00:44:49;;;;;;;3.45;2.83;;;6.00;99.90;;;;;;5076182;28;20060;-74
2021/11/05 00:47:15;;;;;;;6.97;2.83;;;6.00;99.90;;;;;;5076233;28;20028;-74
2021/11/05 00:49:42;;;;;;;3.85;2.80;;;6.00;99.90;;;;;;5076161;28;20154;-74
2021/11/05 00:52:08;;;;;;;2.80;2.58;;;5.90;99.90;;;;;;5076191;28;20370;-74
2021/11/05 00:54:34;;;;;;;2.50;2.30;;;5.90;99.90;;;;;;5075954;28;20515;-74
2021/11/05 00:56:59;;;;;;;3.72;2.67;;;5.90;99.90;;;;;;5075990;28;20171;-74
2021/11/05 00:59:25;;;;;;;4.07;2.88;;;5.80;99.90;;;;;;5085469;28;20028;-74
2021/11/05 01:01:51;;;;;;;2.63;2.42;;;5.80;99.90;;;;;;5096231;28;20027;-74
2021/11/05 01:04:17;;;;;;;3.08;2.78;;;5.80;99.90;;;;;;5096178;28;20031;-74
2021/11/05 01:06:42;;;;;;;2.75;2.30;;;5.80;99.90;;;;;;5096152;28;20028;-74
2021/11/05 01:09:08;;;;;;;2.08;1.98;;;5.80;99.90;;;;;;5096236;28;20036;-74
2021/11/05 01:11:34;;;;;;;2.15;2.05;;;5.80;99.90;;;;;;5094718;28;20032;-74
2021/11/05 01:14:00;;;;;;;2.42;2.22;;;5.80;99.90;;;;;;5094586;28;20055;-74
2021/11/05 01:16:25;;;;;;;2.55;2.35;;;5.80;99.90;;;;;;5094671;28;20023;-74
2021/11/05 01:18:51;;;;;;;3.10;2.90;;;5.80;99.90;;;;;;5095791;28;20017;-74
2021/11/05 01:21:17;;;;;;;2.70;2.50;;;5.70;99.90;;;;;;5094488;28;20019;-74
2021/11/05 01:23:43;;;;;;;2.80;2.60;;;5.80;99.90;;;;;;5095866;28;20020;-74
2021/11/05 01:26:08;;;;;;;2.65;2.25;;;5.70;99.90;;;;;;5094463;28;20040;-74
2021/11/05 01:28:34;;;;;;;2.70;2.50;;;5.70;99.90;;;;;;5094321;28;20078;-74
2021/11/05 01:31:00;;;;;;;2.83;2.63;;;5.70;99.90;;;;;;5095656;28;20024;-74
2021/11/05 01:33:25;;;;;;;2.50;2.30;;;5.70;99.90;;;;;;5095650;28;20032;-74
2021/11/05 01:35:52;;;;;;;2.83;2.55;;;5.70;99.90;;;;;;5094190;28;20043;-74
2021/11/05 01:38:17;;;;;;;3.05;2.80;;;5.70;99.90;;;;;;5095475;28;20069;-74
2021/11/05 01:40:44;;;;;;;2.70;2.50;;;5.60;99.90;;;;;;5095471;28;20103;-74
2021/11/05 01:43:11;;;;;;;3.10;2.60;;;5.60;99.90;;;;;;5095061;28;20016;-74
2021/11/05 01:45:39;;;;;;;2.72;2.53;;;5.60;99.90;;;;;;5095297;28;20508;-74
2021/11/05 01:48:05;;;;;;;3.03;2.83;;;5.70;99.90;;;;;;5095403;28;20016;-74
2021/11/05 01:50:30;;;;;;;2.75;2.55;;;5.60;99.90;;;;;;5095052;28;20106;-74
2021/11/05 01:52:56;;;;;;;3.53;3.22;;;5.60;99.90;;;;;;5095251;28;20020;-74
2021/11/05 01:55:23;;;;;;;3.25;2.95;;;5.60;99.90;;;;;;5095094;28;20032;-74
2021/11/05 01:57:49;;;;;;;3.40;3.10;;;5.50;99.90;;;;;;5093854;28;20527;-74
2021/11/05 02:00:18;;;;;;;2.53;2.33;;;5.60;99.90;;;;;;5093837;28;20020;-74
2021/11/05 02:02:44;;;;;;;3.15;2.58;;;5.60;99.90;;;;;;5095095;28;20020;-74
2021/11/05 02:05:11;;;;;;;3.60;2.80;;;5.60;99.90;;;;;;5095008;28;20024;-74
2021/11/05 02:07:37;;;;;;;3.60;3.30;;;5.50;99.90;;;;;;5094937;28;20107;-74
2021/11/05 02:10:05;;;;;;;3.50;3.20;;;5.50;99.90;;;;;;5093662;28;20119;-74
2021/11/05 02:12:31;;;;;;;4.25;2.92;;;5.50;99.90;;;;;;5094799;28;20518;-74
2021/11/05 02:14:58;;;;;;;3.30;2.95;;;5.40;99.90;;;;;;5094723;28;20040;-74
2021/11/05 02:17:24;;;;;;;3.17;2.88;;;5.40;99.90;;;;;;5094847;28;20091;-74
2021/11/05 02:19:51;;;;;;;3.50;2.97;;;5.40;99.90;;;;;;5093423;28;20041;-74
2021/11/05 02:22:17;;;;;;;3.70;3.08;;;5.40;99.90;;;;;;5094681;28;20510;-74
2021/11/05 02:24:43;;;;;;;3.40;2.88;;;5.30;99.90;;;;;;5094561;28;20052;-74
2021/11/05 02:27:09;;;;;;;3.30;3.00;;;5.30;99.90;;;;;;5094709;28;20066;-74
2021/11/05 02:29:35;;;;;;;3.30;3.10;;;5.30;99.90;;;;;;5094489;28;20036;-74
2021/11/05 02:32:02;;;;;;;5.82;3.97;;;5.30;99.90;;;;;;5094473;28;20024;-74
2021/11/05 02:34:29;;;;;;;4.50;3.40;;;5.20;99.90;;;;;;5092995;28;20047;-74
2021/11/05 02:36:55;;;;;;;3.00;2.80;;;5.20;99.90;;;;;;5094483;28;20493;-74
2021/11/05 02:39:21;;;;;;;4.00;3.55;;;5.20;99.90;;;;;;5094208;28;20111;-74
2021/11/05 02:41:48;;;;;;;6.47;3.10;;;5.10;99.90;;;;;;5093045;28;20016;-74
2021/11/05 02:44:15;;;;;;;4.72;3.58;;;5.10;99.90;;;;;;5093004;28;20012;-74
2021/11/05 02:46:41;;;;;;;3.78;3.38;;;5.00;99.90;;;;;;5094249;28;20028;-74
2021/11/05 02:49:08;;;;;;;3.38;3.00;;;5.00;99.90;;;;;;5094169;28;20028;-74
2021/11/05 02:51:35;;;;;;;3.50;2.80;;;5.00;99.90;;;;;;5094152;28;20051;-74
2021/11/05 02:54:02;;;;;;;4.03;3.35;;;5.00;99.90;;;;;;5092631;28;20035;-74
2021/11/05 02:56:28;;;;;;;3.58;3.25;;;4.90;99.90;;;;;;5091941;28;20374;-74
2021/11/05 02:58:53;;;;;;;4.05;3.03;;;4.90;99.90;;;;;;5093996;28;20027;-74
2021/11/05 03:01:20;;;;;;;3.78;3.40;;;4.90;99.90;;;;;;5093851;28;20073;-74
2021/11/05 03:03:46;;;;;;;3.60;3.30;;;4.90;99.90;;;;;;5092607;28;20024;-74
2021/11/05 03:06:11;;;;;;;3.70;3.40;;;4.90;99.90;;;;;;5093865;28;20534;-74
2021/11/05 03:08:37;;;;;;;4.28;3.35;;;4.90;99.90;;;;;;5093658;28;20036;-74
2021/11/05 03:11:03;;;;;;;3.50;3.20;;;4.90;99.90;;;;;;5093798;28;20069;-74
2021/11/05 03:13:29;;;;;;;3.70;3.25;;;4.80;99.90;;;;;;5093711;28;20051;-74
2021/11/05 03:15:55;;;;;;;3.67;2.83;;;4.80;99.90;;;;;;5093593;28;20075;-74
2021/11/05 03:18:21;;;;;;;4.82;3.20;;;4.80;99.90;;;;;;5092250;28;20487;-74
2021/11/05 03:20:47;;;;;;;3.63;3.05;;;4.70;99.90;;;;;;5093581;28;20028;-74
2021/11/05 03:23:14;;;;;;;3.88;3.25;;;4.70;99.90;;;;;;5093615;28;20485;-74
2021/11/05 03:25:40;;;;;;;3.70;3.08;;;4.70;99.90;;;;;;5083242;28;20032;-74
2021/11/05 03:28:06;;;;;;;4.20;2.97;;;4.70;99.90;;;;;;5073299;28;20051;-74
2021/11/05 03:30:33;;;;;;;3.63;3.25;;;4.70;99.90;;;;;;5093384;28;20113;-74
2021/11/05 03:32:59;;;;;;;3.85;2.95;;;4.70;99.90;;;;;;5093460;28;20485;-74
2021/11/05 03:35:25;;;;;;;3.80;3.42;;;4.60;99.90;;;;;;5076889;28;20060;-74
2021/11/05 03:37:50;;;;;;;5.28;4.15;;;4.70;99.90;;;;;;5071771;28;20059;-74
2021/11/05 03:40:17;;;;;;;3.50;3.22;;;4.70;99.90;;;;;;5073067;28;20066;-74
2021/11/05 03:42:48;;;;;;;3.92;3.53;;;4.70;99.90;;;;;;5071783;28;20025;-73
2021/11/05 03:45:15;;;;;;;3.80;3.00;;;4.60;99.90;;;;;;5073112;28;20078;-74
2021/11/05 03:47:41;;;;;;;6.38;3.35;;;4.60;99.90;;;;;;5088749;28;20024;-74
2021/11/05 03:50:07;;;;;;;3.53;3.22;;;4.60;99.90;;;;;;5093089;28;20032;-74
2021/11/05 03:52:33;;;;;;;6.05;3.58;;;4.50;99.90;;;;;;5091847;28;20031;-74
2021/11/05 03:54:59;;;;;;;4.20;3.60;;;4.50;99.90;;;;;;5093056;28;20127;-74
2021/11/05 03:57:25;;;;;;;4.05;3.35;;;4.50;99.90;;;;;;5093103;28;20024;-74
2021/11/05 03:59:51;;;;;;;3.08;2.75;;;4.50;99.90;;;;;;5092984;28;20038;-74
2021/11/05 04:02:17;;;;;;;4.15;3.75;;;4.40;99.90;;;;;;5091760;28;20027;-74
2021/11/05 04:04:43;;;;;;;4.65;3.88;;;4.50;99.90;;;;;;5092965;28;20017;-74
2021/11/05 04:07:08;;;;;;;3.78;3.28;;;4.40;99.90;;;;;;5097248;28;20031;-74
2021/11/05 04:09:34;;;;;;;5.90;4.13;;;4.40;99.90;;;;;;5090396;28;20047;-74
2021/11/05 04:12:00;;;;;;;3.83;3.50;;;4.40;99.90;;;;;;5079461;28;20564;-74
2021/11/05 04:14:26;;;;;;;4.78;3.55;;;4.50;99.90;;;;;;5079290;28;20039;-74
2021/11/05 04:16:52;;;;;;;3.90;3.60;;;4.40;99.90;;;;;;5079293;28;20154;-75
2021/11/05 04:19:17;;;;;;;3.45;3.13;;;4.40;99.90;;;;;;5079209;28;20512;-74
2021/11/05 04:21:43;;;;;;;4.50;3.55;;;4.40;99.90;;;;;;5079347;28;20020;-74
2021/11/05 04:24:09;;;;;;;4.00;3.70;;;4.40;99.90;;;;;;5079422;28;20107;-74
2021/11/05 04:26:35;;;;;;;4.28;3.88;;;4.30;99.90;;;;;;5079266;28;20044;-74
2021/11/05 04:29:01;;;;;;;4.03;3.65;;;4.40;99.90;;;;;;5079238;28;20497;-74
2021/11/05 04:31:26;;;;;;;4.43;3.80;;;4.40;99.90;;;;;;5079284;28;20059;-74
2021/11/05 04:33:52;;;;;;;5.13;4.00;;;4.30;99.90;;;;;;5079092;28;20070;-74
2021/11/05 04:36:21;;;;;;;5.85;4.28;;;4.30;99.90;;;;;;5079119;28;20021;-74
2021/11/05 04:38:47;;;;;;;5.25;3.90;;;4.30;99.90;;;;;;5079150;28;20410;-74
2021/11/05 04:41:12;;;;;;;4.05;3.63;;;4.20;99.90;;;;;;5079178;28;20029;-74
2021/11/05 04:43:38;;;;;;;4.43;3.97;;;4.20;99.90;;;;;;5079118;28;20046;-74
2021/11/05 04:46:04;;;;;;;5.00;4.45;;;4.20;99.90;;;;;;5079041;28;20066;-74
2021/11/05 04:48:29;;;;;;;4.78;3.95;;;4.20;99.90;;;;;;5077709;28;20043;-74
2021/11/05 04:50:55;;;;;;;6.47;4.30;;;4.20;99.90;;;;;;5079086;28;20111;-74
2021/11/05 04:53:20;;;;;;;5.80;3.97;;;4.20;99.90;;;;;;5079077;28;20090;-74
2021/11/05 04:55:46;;;;;;;8.45;4.93;;;4.10;99.90;;;;;;5078898;28;20047;-74
2021/11/05 04:58:12;;;;;;;5.72;4.63;;;4.10;99.90;;;;;;5077821;28;20491;-74
2021/11/05 05:00:37;;;;;;;7.57;3.95;;;4.10;99.90;;;;;;5077656;28;20024;-74
2021/11/05 05:03:04;;;;;;;4.90;4.05;;;4.10;99.90;;;;;;5085016;28;20016;-74
2021/11/05 05:05:30;;;;;;;5.60;4.28;;;4.10;99.90;;;;;;5099097;28;20530;-74
2021/11/05 05:07:57;;;;;;;6.80;5.18;;;4.10;99.90;;;;;;5099185;28;20026;-74
2021/11/05 05:10:23;;;;;;;5.63;4.57;;;4.00;99.90;;;;;;5098944;28;20127;-74
2021/11/05 05:12:48;;;;;;;5.45;4.20;;;4.00;99.90;;;;;;5099135;28;20503;-74
2021/11/05 05:15:15;;;;;;;6.22;4.78;;;4.00;99.90;;;;;;5099055;28;20036;-74
2021/11/05 05:17:42;;;;;;;8.40;5.13;;;3.90;99.90;;;;;;5096136;28;20024;-74
2021/11/05 05:20:11;;;;;;;5.45;4.30;;;3.90;99.90;;;;;;5095578;28;20024;-74
2021/11/05 05:22:38;;;;;;;9.52;5.65;;;3.90;99.90;;;;;;5095734;28;20074;-73
2021/11/05 05:25:05;;;;;;;7.20;4.85;;;3.80;99.90;;;;;;5094482;28;20020;-74
2021/11/05 05:27:31;;;;;;;6.95;5.53;;;3.80;99.90;;;;;;5095723;28;20072;-74
2021/11/05 05:29:57;;;;;;;5.25;4.63;;;3.80;99.90;;;;;;5095600;28;20028;-74
2021/11/05 05:32:23;;;;;;;6.45;4.68;;;3.70;99.90;;;;;;5095599;28;20020;-74
2021/11/05 05:34:50;;;;;;;6.55;4.63;;;3.70;99.90;;;;;;5094227;28;20043;-74
2021/11/05 05:37:15;;;;;;;8.07;5.15;;;3.70;99.90;;;;;;5095645;28;20016;-74
2021/11/05 05:39:43;;;;;;;8.80;5.35;;;3.60;99.90;;;;;;5095371;28;20496;-74
2021/11/05 05:42:08;;;;;;;5.07;4.28;;;3.70;99.90;;;;;;5095561;28;20482;-74
2021/11/05 05:44:34;;;;;;;7.53;4.90;;;3.60;99.90;;;;;;5095337;28;20039;-74
2021/11/05 05:47:01;;;;;;;6.22;4.93;;;3.60;99.90;;;;;;5094101;28;20393;-73
2021/11/05 05:49:27;;;;;;;6.45;5.38;;;3.60;99.90;;;;;;5094388;28;20103;-74
2021/11/05 05:51:53;;;;;;;6.55;4.82;;;3.50;99.90;;;;;;5094461;28;20108;-73
2021/11/05 05:54:19;;;;;;;5.45;3.95;;;3.50;99.90;;;;;;5092836;28;20079;-74
2021/11/05 05:56:44;;;;;;;6.32;4.80;;;3.60;99.90;;;;;;5092035;28;20078;-74
2021/11/05 05:59:10;;;;;;;6.68;5.07;;;3.60;99.90;;;;;;5091277;28;20028;-74
2021/11/05 06:01:36;;;;;;;6.22;4.57;;;3.60;99.90;;;;;;5093484;28;20028;-74
2021/11/05 06:04:02;;;;;;;7.40;5.18;;;3.60;99.90;;;;;;5081147;27;20509;-74
2021/11/05 06:06:28;;;;;;;7.90;4.65;;;3.60;99.90;;;;;;5074604;28;20036;-73
2021/11/05 06:08:54;;;;;;;6.32;4.95;;;3.60;99.90;;;;;;5072905;28;20140;-74
2021/11/05 06:11:20;;;;;;;6.65;5.38;;;3.70;99.90;;;;;;5071981;28;20097;-74
2021/11/05 06:13:46;;;;;;;6.28;5.18;;;3.70;99.90;;;;;;5070901;28;20115;-74
2021/11/05 06:16:12;;;;;;;6.45;4.75;;;3.70;99.90;;;;;;5072936;28;20032;-73
2021/11/05 06:18:37;;;;;;;9.75;5.90;;;3.80;99.90;;;;;;5072070;28;20036;-74
2021/11/05 06:21:06;;;;;;;7.70;5.43;;;3.80;99.90;;;;;;5073124;28;20044;-74
2021/11/05 06:23:32;;;;;;;5.00;4.50;;;3.90;99.90;;;;;;5073287;28;20111;-74
2021/11/05 06:25:58;;;;;;;8.13;5.40;;;4.00;99.90;;;;;;5084418;28;20082;-74
2021/11/05 06:28:25;;;;;;;7.18;4.93;;;4.00;99.90;;;;;;5094135;28;20025;-74
2021/11/05 06:30:52;;;;;;;8.55;5.60;;;4.10;99.90;;;;;;5091029;27;20024;-74
2021/11/05 06:33:21;;;;;;;5.05;4.53;;;4.20;99.90;;;;;;5093144;28;20136;-74
2021/11/05 06:35:47;;;;;;;5.88;5.13;;;4.30;99.90;;;;;;5093575;28;20055;-74
2021/11/05 06:38:13;;;;;;;8.27;5.18;;;4.40;99.90;;;;;;5093940;28;20027;-74
2021/11/05 06:40:40;;;;;;;9.05;5.50;;;4.40;99.90;;;;;;5093503;28;20105;-75
2021/11/05 06:43:06;;;;;;;7.07;5.40;;;4.50;99.90;;;;;;5093848;28;20039;-74
2021/11/05 06:45:32;;;;;;;7.80;5.55;;;4.60;99.90;;;;;;5094147;28;20024;-74
2021/11/05 06:47:57;;;;;;;7.90;5.78;;;4.70;99.90;;;;;;5094212;28;20024;-74
2021/11/05 06:50:23;;;;;;;8.85;5.90;;;4.80;99.90;;;;;;5094146;28;20102;-74
2021/11/05 06:52:49;;;;;;;10.20;6.60;;;4.90;99.90;;;;;;5091867;28;20089;-74
2021/11/05 06:55:15;;;;;;;9.48;5.85;;;5.00;99.90;;;;;;5093837;28;20047;-74
2021/11/05 06:57:41;;;;;;;9.45;6.30;;;5.00;99.90;;;;;;5092879;28;20024;-74
2021/11/05 07:00:09;;;;;;;11.15;6.10;;;5.10;99.90;;;;;;5092321;28;20020;-74
2021/11/05 07:02:42;;;;;;;9.65;6.43;;;5.20;99.90;;;;;;5092657;28;20427;-75
2021/11/05 07:05:13;;;;;;;7.82;5.72;;;5.20;99.90;;;;;;5094005;28;20085;-74
2021/11/05 07:07:39;;;;;;;9.55;6.45;;;5.30;99.90;;;;;;5093832;28;20055;-74
2021/11/05 07:10:06;;;;;;;9.73;6.40;;;5.40;99.90;;;;;;5092435;28;20063;-74
2021/11/05 07:12:32;;;;;;;8.32;6.53;;;5.40;99.90;;;;;;5092916;28;20012;-74
2021/11/05 07:14:58;;;;;;;9.40;6.68;;;5.50;99.90;;;;;;5092950;28;20044;-74
2021/11/05 07:17:24;;;;;;;10.48;6.07;;;5.50;99.90;;;;;;5093226;28;20069;-74
2021/11/05 07:19:50;;;;;;;8.55;6.35;;;5.60;99.90;;;;;;5093159;28;20020;-74
2021/11/05 07:22:15;;;;;;;8.18;5.80;;;5.60;99.90;;;;;;5093188;28;20070;-74
2021/11/05 07:24:41;;;;;;;7.05;5.55;;;5.50;99.90;;;;;;5093007;28;20023;-74
2021/11/05 07:27:07;;;;;;;7.97;5.93;;;5.50;99.90;;;;;;5084021;28;20056;-74
2021/11/05 07:29:33;;;;;;;7.97;5.63;;;5.50;99.90;;;;;;5091359;28;20429;-74
2021/11/05 07:32:01;;;;;;;7.25;6.05;;;5.50;99.90;;;;;;5093294;28;20393;-74
2021/11/05 07:34:30;;;;;;;8.15;5.95;;;5.50;99.90;;;;;;5092878;28;20019;-74
2021/11/05 07:37:00;;;;;;;9.27;5.68;;;5.50;99.90;;;;;;5083176;28;20017;-74
2021/11/05 07:39:26;;;;;;;6.28;5.30;;;5.50;99.90;;;;;;5090181;28;20369;-74
2021/11/05 07:41:52;;;;;;;8.18;5.72;;;5.50;99.90;;;;;;5090940;28;20091;-74
2021/11/05 07:44:18;;;;;;;6.43;5.32;;;5.70;99.90;;;;;;5092642;28;20483;-74
2021/11/05 07:46:46;;;;;;;9.75;5.55;;;5.90;99.90;;;;;;5092787;28;20095;-74
2021/11/05 07:49:12;;;;;;;10.73;6.90;;;6.00;99.90;;;;;;5092654;28;20020;-74
2021/11/05 07:51:38;;;;;;;10.15;6.00;;;6.00;99.90;;;;;;5092671;28;20408;-74
2021/11/05 07:54:04;;;;;;;7.55;5.70;;;6.10;99.90;;;;;;5092740;28;20024;-74
2021/11/05 07:56:30;;;;;;;9.38;5.45;;;6.00;99.90;;;;;;5091824;28;20035;-74
2021/11/05 07:58:56;;;;;;;8.63;5.97;;;6.10;99.90;;;;;;5093085;28;20074;-74
2021/11/05 08:01:22;;;;;;;8.13;5.65;;;6.10;99.90;;;;;;5092479;28;20152;-74
2021/11/05 08:03:48;;;;;;;7.53;5.68;;;6.20;99.90;;;;;;5091704;28;20028;-74
2021/11/05 08:06:15;;;;;;;8.38;5.93;;;6.30;99.90;;;;;;5093049;28;20531;-74
2021/11/05 08:08:41;;;;;;;10.75;6.32;;;6.40;99.90;;;;;;5093063;28;20354;-74
2021/11/05 08:11:06;;;;;;;7.00;5.50;;;6.40;99.90;;;;;;5093040;28;20046;-73
2021/11/05 08:13:32;;;;;;;8.75;6.00;;;6.50;99.90;;;;;;5091664;28;20020;-74
2021/11/05 08:15:58;;;;;;;7.07;5.30;;;6.60;99.90;;;;;;5092204;28;20044;-74
2021/11/05 08:18:23;;;;;;;12.23;6.22;;;6.70;99.90;;;;;;5092359;28;20016;-74
2021/11/05 08:20:49;;;;;;;8.45;6.25;;;6.70;99.90;;;;;;5090993;28;20020;-74
2021/11/05 08:23:15;;;;;;;8.30;6.00;;;6.70;99.90;;;;;;5092426;28;20107;-74
2021/11/05 08:25:44;;;;;;;11.55;6.68;;;6.80;99.90;;;;;;5090768;28;20154;-73
2021/11/05 08:28:10;;;;;;;9.52;6.30;;;6.90;99.90;;;;;;5090789;28;20024;-74
2021/11/05 08:30:37;;;;;;;10.13;6.38;;;6.90;99.30;;;;;;5090897;28;20054;-74
2021/11/05 08:33:03;;;;;;;10.90;7.60;;;7.00;99.30;;;;;;5090894;28;20028;-74
2021/11/05 08:35:30;;;;;;;10.10;6.88;;;7.10;99.90;;;;;;5090713;28;20040;-74
2021/11/05 08:37:57;;;;;;;9.68;6.40;;;7.10;97.50;;;;;;5091194;28;20038;-74
2021/11/05 08:40:23;;;;;;;10.38;6.80;;;7.10;97.90;;;;;;5090405;28;20128;-74
2021/11/05 08:42:49;;;;;;;11.20;6.38;;;7.10;97.50;;;;;;5089347;28;20051;-74
2021/11/05 08:45:15;;;;;;;10.85;6.63;;;7.20;99.00;;;;;;5089851;28;20054;-74
2021/11/05 08:47:43;;;;;;;9.43;6.20;;;7.10;96.10;;;;;;5091321;28;20051;-74
2021/11/05 08:50:17;;;;;;;8.77;5.97;;;7.10;96.20;;;;;;5090160;28;20021;-74
2021/11/05 08:52:43;;;;;;;10.93;6.65;;;7.20;96.90;;;;;;5090205;28;20031;-74
2021/11/05 08:55:10;;;;;;;8.18;5.82;;;7.30;96.90;;;;;;5094222;28;20040;-74
2021/11/05 08:57:37;;;;;;;9.50;6.88;;;7.30;95.60;;;;;;5096354;28;20030;-74
2021/11/05 09:00:10;;;;;;;10.00;6.22;;;7.40;95.30;;;;;;5096282;28;20359;-74
2021/11/05 09:02:36;;;;;;;10.77;5.80;;;7.40;95.20;;;;;;5094931;28;20569;-74
2021/11/05 09:05:03;;;;;;;10.50;6.72;;;7.40;95.60;;;;;;5096193;28;20107;-74
2021/11/05 09:07:28;;;;;;;8.52;6.00;;;7.50;96.30;;;;;;5096108;28;20023;-74
2021/11/05 09:09:55;;;;;;;9.27;6.03;;;7.60;95.80;;;;;;5095987;28;20032;-74
2021/11/05 09:12:21;;;;;;;7.75;5.75;;;7.70;94.40;;;;;;5096121;28;20069;-74
2021/11/05 09:14:46;;;;;;;9.15;6.18;;;7.60;91.80;;;;;;5095943;28;20107;-74
2021/11/05 09:17:12;;;;;;;10.07;5.93;;;7.60;90.30;;;;;;5096057;28;20422;-74
2021/11/05 09:19:38;;;;;;;10.38;6.40;;;7.60;91.60;;;;;;5091599;28;20150;-74
2021/11/05 09:22:04;;;;;;;10.90;6.05;;;7.60;92.70;;;;;;5085636;28;20065;-74
2021/11/05 09:24:29;;;;;;;9.88;6.10;;;7.80;93.20;;;;;;5088160;28;20073;-74
2021/11/05 09:26:55;;;;;;;11.57;6.00;;;7.80;90.80;;;;;;5093637;28;20035;-74
2021/11/05 09:29:21;;;;;;;8.98;6.30;;;8.00;90.50;;;;;;5075445;28;20093;-74
2021/11/05 09:31:46;;;;;;;8.00;5.47;;;8.00;87.50;;;;;;5074171;28;20028;-74
2021/11/05 09:34:12;;;;;;;10.05;6.65;;;8.20;90.90;;;;;;5073635;28;20023;-74
2021/11/05 09:36:38;;;;;;;11.10;6.47;;;8.20;86.70;;;;;;5075317;28;20028;-74
2021/11/05 09:39:04;;;;;;;9.57;6.03;;;8.30;86.40;;;;;;5073898;28;20454;-74
2021/11/05 09:41:30;;;;;;;13.60;6.78;;;8.20;85.50;;;;;;5091780;28;20024;-74
2021/11/05 09:43:55;;;;;;;11.20;6.93;;;8.10;84.80;;;;;;5094244;28;20092;-74
2021/11/05 09:46:21;;;;;;;10.35;6.57;;;7.90;83.70;;;;;;5095369;28;20539;-74
2021/11/05 09:48:49;;;;;;;9.43;6.25;;;7.90;85.40;;;;;;5095391;28;20464;-74
2021/11/05 09:51:15;;;;;;;11.57;6.10;;;7.90;87.40;;;;;;5095359;28;20032;-74
2021/11/05 09:53:41;;;;;;;9.27;6.13;;;7.80;87.00;;;;;;5094061;28;20043;-74
2021/11/05 09:56:17;;;;;;;10.93;6.68;;;7.80;87.40;;;;;;5095197;28;20028;-74
2021/11/05 09:58:43;;;;;;;12.70;6.25;;;7.90;86.80;;;;;;5095265;28;20027;-74
2021/11/05 10:01:10;;;;;;;7.72;5.50;;;8.00;86.40;;;;;;5095134;28;20032;-74
2021/11/05 10:03:36;;;;;;;10.35;6.38;;;8.10;86.50;;;;;;5092586;28;20024;-74
2021/11/05 10:06:06;;;;;;;13.95;7.05;;;8.20;86.90;;;;;;5073374;28;20031;-74
2021/11/05 10:08:34;;;;;;;11.00;6.13;;;8.30;85.60;;;;;;5073434;28;20432;-74
2021/11/05 10:11:17;;;;;;;7.72;5.25;;;8.40;83.80;;;;;;5074664;28;20016;-74
2021/11/05 10:13:43;;;;;;;11.73;5.93;;;8.50;82.20;;;;;;5074720;28;20066;-74
2021/11/05 10:16:13;;;;;;;11.48;5.93;;;8.50;80.50;;;;;;5074523;28;20493;-74
2021/11/05 10:19:01;;;;;;;6.47;5.38;;;8.50;81.10;;;;;;5074545;28;20021;-74
2021/11/05 10:21:40;;;;;;;9.35;5.57;;;8.70;79.70;;;;;;5074571;28;20017;-74
2021/11/05 10:24:13;;;;;;;7.78;5.60;;;8.60;78.50;;;;;;5073202;28;20106;-74
2021/11/05 10:26:40;;;;;;;9.27;5.15;;;8.70;78.20;;;;;;5074413;28;20032;-74
2021/11/05 10:29:07;;;;;;;8.18;4.93;;;8.80;79.00;;;;;;5073109;28;20072;-74
2021/11/05 10:31:35;;;;;;;7.30;5.00;;;8.80;76.80;;;;;;5074280;28;20499;-74
2021/11/05 10:34:03;;;;;;;6.57;4.90;;;8.90;77.40;;;;;;5072914;28;20025;-74
2021/11/05 10:36:31;;;;;;;6.18;5.10;;;8.90;77.00;;;;;;5074191;28;20028;-74
2021/11/05 10:39:03;;;;;;;6.80;4.93;;;9.00;76.60;;;;;;5074191;28;20024;-74
2021/11/05 10:41:31;;;;;;;7.30;5.00;;;9.00;74.70;;;;;;5072785;28;20017;-74
2021/11/05 10:43:59;;;;;;;9.32;5.15;;;9.10;75.50;;;;;;5072834;28;20017;-74
2021/11/05 10:46:28;;;;;;;9.50;5.50;;;9.10;75.70;;;;;;5073971;28;20024;-74
2021/11/05 10:48:56;;;;;;;7.38;5.10;;;9.20;77.00;;;;;;5072657;28;20021;-74
2021/11/05 10:51:25;;;;;;;5.97;4.55;;;9.20;75.20;;;;;;5073963;28;20048;-74
2021/11/05 10:53:51;;;;;;;7.10;4.68;;;9.10;74.00;;;;;;5071963;28;20023;-74
2021/11/05 10:56:24;;;;;;;6.03;4.25;;;9.10;74.70;;;;;;5087262;28;20114;-74
2021/11/05 10:58:49;;;;;;;5.43;4.80;;;9.00;73.10;;;;;;5092409;28;20111;-74
2021/11/05 11:01:17;;;;;;;6.60;4.38;;;9.10;74.60;;;;;;5093303;28;20453;-74
2021/11/05 11:03:45;;;;;;;10.38;5.22;;;9.10;73.90;;;;;;5093192;28;20024;-74
2021/11/05 11:06:14;;;;;;;6.00;3.95;;;9.20;74.40;;;;;;5092593;28;20043;-74
2021/11/05 11:08:51;;;;;;;5.00;4.32;;;9.30;73.90;;;;;;5093943;28;20483;-74
2021/11/05 11:11:26;;;;;;;7.03;4.68;;;9.40;73.50;;;;;;5087240;28;20024;-74
2021/11/05 11:14:18;;;;;;;7.45;4.85;;;9.40;72.70;;;;;;5073418;28;20024;-74
2021/11/05 11:17:00;;;;;;;7.85;5.15;;;9.40;71.00;;;;;;5072138;28;20024;-74
2021/11/05 11:19:28;;;;;;;10.35;4.90;;;9.40;72.00;;;;;;5073388;28;20355;-74
2021/11/05 11:21:59;;;;;;;5.82;4.60;;;9.40;71.60;;;;;;5073314;28;20023;-74
2021/11/05 11:24:28;;;;;;;5.65;4.75;;;9.50;70.60;;;;;;5073196;28;20055;-74
2021/11/05 11:26:55;;;;;;;8.05;4.88;;;9.40;69.90;;;;;;5073255;28;20020;-74
2021/11/05 11:29:23;;;;;;;6.72;4.80;;;9.40;70.90;;;;;;5073112;28;20462;-74
2021/11/05 11:31:50;;;;;;;8.48;4.38;;;9.50;71.70;;;;;;5086368;28;20523;-73
2021/11/05 11:34:17;;;;;;;7.85;5.25;;;9.60;72.20;;;;;;5091844;28;20026;-74
2021/11/05 11:37:03;;;;;;;8.25;5.28;;;9.70;72.50;;;;;;5093365;28;20070;-74
2021/11/05 11:39:31;;;;;;;12.43;5.25;;;9.80;70.50;;;;;;5091941;28;20106;-74
2021/11/05 11:42:02;;;;;;;8.38;4.80;;;9.80;69.70;;;;;;5092099;28;20069;-74
2021/11/05 11:44:36;;;;;;;6.60;4.15;;;9.70;70.30;;;;;;5090292;28;20024;-74
2021/11/05 11:47:01;;;;;;;6.47;5.05;;;9.60;70.20;;;;;;5091768;28;20023;-74
2021/11/05 11:49:38;;;;;;;8.43;5.45;;;9.50;70.20;;;;;;5091628;28;20103;-74
2021/11/05 11:52:30;;;;;;;7.40;5.25;;;9.40;70.50;;;;;;5091425;28;20031;-74
2021/11/05 11:55:10;;;;;;;8.27;5.37;;;9.20;71.10;;;;;;5092271;28;20543;-74
2021/11/05 11:57:35;;;;;;;7.82;5.32;;;9.10;72.20;;;;;;5093051;28;20242;-74
2021/11/05 12:00:06;;;;;;;7.35;4.95;;;8.90;72.00;;;;;;5092833;28;20446;-74
2021/11/05 12:02:38;;;;;;;5.85;5.07;;;8.80;73.00;;;;;;5091607;28;20028;-74
2021/11/05 12:05:44;;;;;;;6.65;4.78;;;8.70;73.40;;;;;;5092965;28;20410;-74
2021/11/05 12:08:17;;;;;;;5.97;4.90;;;8.70;73.90;;;;;;5080998;28;20064;-74
2021/11/05 12:10:47;;;;;;;;;;;8.60;75.50;;;;;;5072440;28;20105;-74
2021/11/05 12:13:32;;;;;;;6.07;5.05;;;8.60;75.20;;;;;;5072239;28;19991;-73
2021/11/05 12:16:10;;;;;;;8.13;4.90;;;8.60;76.00;;;;;;5071179;28;20045;-74
2021/11/05 12:18:54;;;;;;;8.60;5.57;;;8.60;76.30;;;;;;5071900;28;20029;-74
2021/11/05 12:21:21;;;;;;;8.70;5.65;;;8.60;76.90;;;;;;5072598;28;20020;-74
2021/11/05 12:24:06;;;;;;;8.65;5.28;;;8.60;76.40;;;;;;5072565;28;20139;-74
2021/11/05 12:27:01;;;;;;;13.38;5.97;;;8.70;76.60;;;;;;5071172;28;20115;-74
2021/11/05 12:29:33;;;;;;;8.68;5.85;;;8.90;75.50;;;;;;5075245;28;20021;-74
2021/11/05 12:32:17;;;;;;;9.48;5.53;;;9.00;74.80;;;;;;5075254;28;20039;-74
2021/11/05 12:34:49;;;;;;;6.38;5.20;;;8.90;73.10;;;;;;5076386;28;20036;-74
2021/11/05 12:37:42;;;;;;;7.85;5.03;;;8.90;74.40;;;;;;5075128;28;20067;-74
2021/11/05 12:40:44;;;;;;;8.68;5.43;;;8.90;75.60;;;;;;5076321;28;20021;-74
2021/11/05 12:43:22;;;;;;;8.82;5.78;;;8.90;75.00;;;;;;5076559;28;20107;-74
2021/11/05 12:45:53;;;;;;;8.65;6.32;;;8.90;76.10;;;;;;5076223;28;20028;-74
2021/11/05 12:48:37;;;;;;;8.25;5.75;;;8.90;75.40;;;;;;5076107;28;20021;-74
2021/11/05 12:51:12;;;;;;;8.35;5.68;;;8.80;75.00;;;;;;5075615;28;20032;-75
2021/11/05 12:53:42;;;;;;;8.82;5.70;;;8.80;76.20;;;;;;5095358;28;20093;-74
2021/11/05 12:56:15;;;;;;;13.15;6.70;;;8.70;77.60;;;;;;5095487;27;20043;-74
2021/11/05 12:58:41;;;;;;;10.98;6.20;;;8.70;76.30;;;;;;5095677;28;20023;-74